Time;durP1;ratioP1;P1;durP2;ratioP2;P2;SDS_P1;SDS_P2;PMS_P1;PMS_P2;Temp;Humidity;BMP_temperature;BMP_pressure;BME280_temperature;BME280_humidity;BME280_pressure;Samples;Min_cycle;Max_cycle;Signal;HPM_P1;HPM_P2
2022/04/15 00:01:40;;;;;;;12.90;6.78;;;7.30;99.90;;;;;;5115922;28;20048;-82
2022/04/15 00:04:05;;;;;;;12.07;6.43;;;7.30;99.90;;;;;;5115635;28;20126;-83
2022/04/15 00:06:32;;;;;;;10.00;6.00;;;7.30;99.90;;;;;;5116049;28;20128;-83
2022/04/15 00:08:58;;;;;;;12.88;6.35;;;7.20;99.90;;;;;;5114450;28;20051;-83
2022/04/15 00:11:24;;;;;;;10.00;6.40;;;7.20;99.90;;;;;;5126130;28;20069;-86
2022/04/15 00:13:49;;;;;;;11.90;6.68;;;7.20;99.90;;;;;;5126481;28;20035;-83
2022/04/15 00:16:15;;;;;;;12.05;6.45;;;7.20;99.90;;;;;;5119197;28;20051;-83
2022/04/15 00:18:41;;;;;;;11.23;6.72;;;7.10;99.90;;;;;;5115737;27;20035;-83
2022/04/15 00:21:08;;;;;;;12.18;6.53;;;7.00;99.90;;;;;;5097855;28;20047;-83
2022/04/15 00:23:34;;;;;;;12.10;7.03;;;7.40;99.90;;;;;;5097239;28;20040;-83
2022/04/15 00:26:00;;;;;;;12.38;6.38;;;7.20;99.90;;;;;;5097142;28;20136;-83
2022/04/15 00:28:26;;;;;;;13.32;6.55;;;7.40;99.90;;;;;;5114342;28;20036;-83
2022/04/15 00:30:52;;;;;;;12.90;6.47;;;7.00;99.90;;;;;;5114121;28;20039;-83
2022/04/15 00:33:17;;;;;;;10.55;6.32;;;7.30;99.90;;;;;;5118703;28;20051;-82
2022/04/15 00:35:43;;;;;;;11.77;6.05;;;6.90;99.90;;;;;;5117301;28;20061;-82
2022/04/15 00:38:09;;;;;;;13.90;6.50;;;7.00;99.90;;;;;;5099597;28;20043;-82
2022/04/15 00:40:35;;;;;;;12.20;6.75;;;7.00;99.90;;;;;;5118419;28;20428;-83
2022/04/15 00:43:00;;;;;;;9.63;6.38;;;6.90;99.90;;;;;;5118828;28;20031;-82
2022/04/15 00:45:26;;;;;;;12.95;6.57;;;6.90;99.90;;;;;;5100070;28;20051;-82
2022/04/15 00:47:56;;;;;;;13.18;7.13;;;6.80;99.90;;;;;;5117723;28;20058;-83
2022/04/15 00:50:24;;;;;;;11.88;6.97;;;6.80;99.90;;;;;;5099306;28;20040;-82
2022/04/15 00:52:51;;;;;;;11.63;7.43;;;6.80;99.90;;;;;;5099421;28;20048;-83
2022/04/15 00:55:19;;;;;;;11.98;6.72;;;6.80;99.90;;;;;;5098511;28;20099;-83
2022/04/15 00:57:50;;;;;;;11.57;6.82;;;6.70;99.90;;;;;;5098863;28;20066;-82
2022/04/15 01:00:16;;;;;;;13.82;6.20;;;6.70;99.90;;;;;;5116484;28;20073;-83
2022/04/15 01:02:43;;;;;;;12.70;6.53;;;6.70;99.90;;;;;;5099342;28;20042;-83
2022/04/15 01:05:10;;;;;;;13.65;7.05;;;6.70;99.90;;;;;;5115185;28;20046;-83
2022/04/15 01:07:38;;;;;;;10.82;6.63;;;6.70;99.90;;;;;;5097523;28;20486;-83
2022/04/15 01:10:06;;;;;;;11.27;7.10;;;6.80;99.90;;;;;;5113988;28;20069;-82
2022/04/15 01:12:36;;;;;;;14.50;7.45;;;6.60;99.90;;;;;;5113935;28;20047;-83
2022/04/15 01:15:05;;;;;;;11.85;7.03;;;6.60;99.90;;;;;;5097025;28;20040;-83
2022/04/15 01:17:33;;;;;;;10.77;6.45;;;6.60;99.90;;;;;;5096933;28;20043;-83
2022/04/15 01:19:59;;;;;;;10.43;6.82;;;6.90;99.90;;;;;;5115134;28;20050;-82
2022/04/15 01:22:31;;;;;;;12.15;6.80;;;6.50;99.90;;;;;;5113685;28;20044;-83
2022/04/15 01:24:57;;;;;;;12.57;6.97;;;6.50;99.90;;;;;;5096944;28;20547;-82
2022/04/15 01:27:26;;;;;;;13.73;7.18;;;6.80;99.90;;;;;;5097122;28;20119;-82
2022/04/15 01:29:52;;;;;;;12.70;6.38;;;6.30;99.90;;;;;;5114359;28;20055;-82
2022/04/15 01:32:18;;;;;;;12.40;6.43;;;6.40;99.90;;;;;;5113741;28;20058;-82
2022/04/15 01:34:44;;;;;;;12.20;6.93;;;6.40;99.90;;;;;;5114724;28;20082;-82
2022/04/15 01:37:10;;;;;;;13.65;6.95;;;6.40;99.90;;;;;;5097919;28;20535;-82
2022/04/15 01:39:38;;;;;;;11.38;6.22;;;6.40;99.90;;;;;;5114347;28;20425;-83
2022/04/15 01:42:04;;;;;;;9.68;6.45;;;6.70;99.90;;;;;;5096595;28;20040;-83
2022/04/15 01:44:29;;;;;;;13.32;6.82;;;6.40;99.90;;;;;;5118000;28;20051;-82
2022/04/15 01:46:55;;;;;;;11.60;6.90;;;6.40;99.90;;;;;;5119288;28;20114;-82
2022/04/15 01:49:21;;;;;;;12.27;6.97;;;6.40;99.90;;;;;;5101594;28;20384;-83
2022/04/15 01:51:46;;;;;;;14.75;7.07;;;6.30;99.90;;;;;;5104269;28;20047;-82
2022/04/15 01:54:12;;;;;;;14.10;6.75;;;6.40;99.90;;;;;;5138832;28;20103;-82
2022/04/15 01:56:39;;;;;;;13.52;7.18;;;6.50;99.90;;;;;;5117602;28;20047;-83
2022/04/15 01:59:09;;;;;;;10.48;6.85;;;6.40;99.90;;;;;;5117471;28;20069;-83
2022/04/15 02:01:35;;;;;;;12.57;6.50;;;6.50;99.90;;;;;;5117417;28;20074;-83
2022/04/15 02:04:00;;;;;;;13.13;6.97;;;6.70;99.90;;;;;;5130012;28;20086;-84
2022/04/15 02:06:26;;;;;;;11.10;6.28;;;6.90;99.90;;;;;;5130520;28;20043;-83
2022/04/15 02:08:52;;;;;;;13.52;7.10;;;6.40;99.90;;;;;;5114059;28;20125;-83
2022/04/15 02:11:17;;;;;;;14.52;8.15;;;7.00;99.90;;;;;;5113922;28;20065;-83
2022/04/15 02:13:43;;;;;;;15.73;8.85;;;6.60;99.90;;;;;;5131498;28;20036;-83
2022/04/15 02:16:09;;;;;;;15.35;9.23;;;7.20;99.90;;;;;;5129320;28;20134;-84
2022/04/15 02:18:34;;;;;;;17.73;9.38;;;7.20;99.90;;;;;;5111514;28;20036;-83
2022/04/15 02:21:00;;;;;;;17.77;9.55;;;6.70;99.90;;;;;;5127508;28;20047;-83
2022/04/15 02:23:25;;;;;;;15.88;9.20;;;7.20;99.90;;;;;;5111151;28;20539;-83
2022/04/15 02:25:51;;;;;;;15.02;8.95;;;6.90;99.90;;;;;;5129216;28;20050;-83
2022/04/15 02:28:17;;;;;;;16.60;8.98;;;6.90;99.90;;;;;;5125556;28;20040;-83
2022/04/15 02:30:42;;;;;;;17.75;9.27;;;7.00;99.90;;;;;;5124551;28;20040;-82
2022/04/15 02:33:08;;;;;;;14.45;8.55;;;7.00;99.90;;;;;;5124186;28;20054;-82
2022/04/15 02:35:34;;;;;;;15.65;9.00;;;7.10;99.90;;;;;;5107575;28;20394;-82
2022/04/15 02:37:59;;;;;;;16.08;9.10;;;7.10;99.90;;;;;;5106814;28;20040;-82
2022/04/15 02:40:25;;;;;;;17.05;8.43;;;7.10;99.90;;;;;;5107416;28;20036;-82
2022/04/15 02:42:51;;;;;;;15.38;8.52;;;7.20;99.90;;;;;;5123245;28;20114;-83
2022/04/15 02:45:16;;;;;;;13.30;8.30;;;7.30;99.90;;;;;;5123299;28;20395;-83
2022/04/15 02:47:42;;;;;;;17.30;8.48;;;7.30;99.90;;;;;;5118408;28;20386;-82
2022/04/15 02:50:08;;;;;;;13.23;8.07;;;7.40;99.90;;;;;;5117277;28;20078;-83
2022/04/15 02:52:34;;;;;;;14.45;7.85;;;7.40;99.90;;;;;;5100314;28;20055;-83
2022/04/15 02:55:00;;;;;;;10.80;7.30;;;7.90;99.90;;;;;;5099255;28;20125;-83
2022/04/15 02:57:26;;;;;;;10.70;6.00;;;7.40;99.90;;;;;;5100271;28;20069;-86
2022/04/15 02:59:52;;;;;;;10.57;6.50;;;7.50;99.90;;;;;;5122207;28;20036;-85
2022/04/15 03:02:17;;;;;;;10.70;6.18;;;7.70;99.90;;;;;;5121991;28;20051;-86
2022/04/15 03:04:43;;;;;;;10.98;5.65;;;7.60;99.90;;;;;;5121393;28;20071;-86
2022/04/15 03:07:09;;;;;;;8.45;5.60;;;7.60;99.90;;;;;;5104020;28;20039;-87
2022/04/15 03:09:34;;;;;;;8.02;5.88;;;7.40;99.90;;;;;;5122751;28;20097;-85
2022/04/15 03:12:00;;;;;;;10.65;6.05;;;7.40;99.90;;;;;;5105768;28;20044;-89
2022/04/15 03:14:26;;;;;;;10.50;5.65;;;7.90;99.90;;;;;;5123245;28;20036;-88
2022/04/15 03:16:51;;;;;;;8.73;5.65;;;7.60;99.90;;;;;;5120820;28;20050;-84
2022/04/15 03:19:17;;;;;;;10.10;5.70;;;7.50;99.90;;;;;;5122675;28;20035;-88
2022/04/15 03:21:43;;;;;;;9.70;5.50;;;7.50;99.90;;;;;;5124114;28;20116;-84
2022/04/15 03:24:08;;;;;;;10.13;5.43;;;8.00;99.90;;;;;;5123651;28;20048;-88
2022/04/15 03:26:34;;;;;;;9.60;5.78;;;7.90;99.90;;;;;;5122488;28;20067;-88
2022/04/15 03:28:59;;;;;;;9.80;5.95;;;7.60;99.90;;;;;;5104223;28;20055;-89
2022/04/15 03:31:25;;;;;;;10.52;5.70;;;7.60;99.90;;;;;;5104596;28;20051;-87
2022/04/15 03:33:51;;;;;;;9.25;5.65;;;7.50;99.90;;;;;;5123339;28;20044;-89
2022/04/15 03:36:17;;;;;;;8.43;5.60;;;7.60;99.90;;;;;;5122322;28;20126;-88
2022/04/15 03:38:42;;;;;;;10.55;5.57;;;8.20;99.90;;;;;;5104680;28;20057;-89
2022/04/15 03:41:08;;;;;;;8.50;5.45;;;7.60;99.90;;;;;;5120950;28;20088;-85
2022/04/15 03:43:34;;;;;;;9.30;5.13;;;7.90;99.90;;;;;;5123272;28;20047;-89
2022/04/15 03:46:00;;;;;;;11.00;5.53;;;7.70;99.90;;;;;;5105813;28;20125;-83
2022/04/15 03:48:26;;;;;;;8.18;4.90;;;8.00;99.90;;;;;;5115538;28;20483;-88
2022/04/15 03:50:53;;;;;;;9.18;5.47;;;7.70;99.90;;;;;;5123226;28;20051;-88
2022/04/15 03:53:20;;;;;;;11.85;5.38;;;8.20;99.90;;;;;;5106289;28;20051;-88
2022/04/15 03:55:46;;;;;;;7.78;5.28;;;8.00;99.90;;;;;;5104932;28;20043;-87
2022/04/15 03:58:13;;;;;;;8.68;5.63;;;7.60;99.90;;;;;;5105332;28;20091;-89
2022/04/15 04:00:40;;;;;;;10.57;5.10;;;8.40;99.90;;;;;;5103962;28;20104;-84
2022/04/15 04:03:05;;;;;;;7.80;5.32;;;8.40;99.90;;;;;;5122468;28;20051;-88
2022/04/15 04:05:31;;;;;;;9.73;5.60;;;8.10;99.90;;;;;;5104731;28;20046;-88
2022/04/15 04:07:57;;;;;;;9.80;5.53;;;7.80;99.90;;;;;;5106683;23;20182;-83
2022/04/15 04:10:23;;;;;;;6.90;5.18;;;7.90;99.90;;;;;;5074806;28;20050;-85
2022/04/15 04:12:48;;;;;;;10.20;5.82;;;7.90;99.90;;;;;;5068504;28;20097;-84
2022/04/15 04:15:14;;;;;;;9.57;5.35;;;8.50;99.90;;;;;;5084771;28;20028;-84
2022/04/15 04:17:41;;;;;;;10.27;5.40;;;8.40;99.90;;;;;;5066836;28;20451;-88
2022/04/15 04:20:09;;;;;;;10.57;5.35;;;7.90;99.90;;;;;;5067438;28;20463;-88
2022/04/15 04:22:36;;;;;;;10.35;5.60;;;7.90;99.90;;;;;;5083738;28;20075;-88
2022/04/15 04:25:04;;;;;;;8.55;5.03;;;8.50;99.90;;;;;;5101248;28;20074;-90
2022/04/15 04:27:30;;;;;;;9.60;5.43;;;7.90;99.90;;;;;;5065282;28;20051;-87
2022/04/15 04:29:56;;;;;;;8.25;5.05;;;8.20;99.90;;;;;;5065753;28;20097;-88
2022/04/15 04:32:22;;;;;;;9.48;5.20;;;8.10;99.90;;;;;;5101301;28;20048;-85
2022/04/15 04:34:48;;;;;;;11.38;5.70;;;8.00;99.90;;;;;;5066313;28;20040;-86
2022/04/15 04:37:14;;;;;;;10.45;5.03;;;8.00;99.90;;;;;;5084117;28;20502;-84
2022/04/15 04:39:40;;;;;;;9.27;5.03;;;8.00;99.90;;;;;;5103702;28;20437;-85
2022/04/15 04:42:07;;;;;;;8.85;4.93;;;8.00;99.90;;;;;;5068356;28;20073;-89
2022/04/15 04:44:35;;;;;;;11.90;5.53;;;8.00;99.90;;;;;;5085751;28;20066;-84
2022/04/15 04:47:00;;;;;;;10.88;5.30;;;8.40;99.90;;;;;;5102977;28;20044;-88
2022/04/15 04:49:26;;;;;;;7.47;4.70;;;8.00;99.90;;;;;;5085204;28;20048;-87
2022/04/15 04:51:53;;;;;;;9.60;5.43;;;8.70;99.90;;;;;;5067835;28;20044;-83
2022/04/15 04:54:19;;;;;;;10.48;5.07;;;8.00;99.90;;;;;;5083501;28;20540;-86
2022/04/15 04:56:45;;;;;;;9.65;5.30;;;8.10;99.90;;;;;;5067440;28;20048;-87
2022/04/15 04:59:10;;;;;;;11.45;5.43;;;8.40;99.90;;;;;;5084635;28;20055;-89
2022/04/15 05:01:36;;;;;;;10.30;5.53;;;8.80;99.90;;;;;;5103456;28;20135;-88
2022/04/15 05:04:01;;;;;;;8.68;5.60;;;8.00;99.90;;;;;;5067962;28;20051;-85
2022/04/15 05:06:27;;;;;;;10.90;5.95;;;8.30;99.90;;;;;;5067577;28;20040;-83
2022/04/15 05:08:53;;;;;;;10.02;5.57;;;8.60;99.90;;;;;;5067464;28;20052;-84
2022/04/15 05:11:18;;;;;;;10.35;5.57;;;8.40;99.90;;;;;;5084961;28;20589;-88
2022/04/15 05:13:44;;;;;;;10.50;5.72;;;8.60;99.90;;;;;;5084635;28;20036;-83
2022/04/15 05:16:10;;;;;;;10.07;5.35;;;8.40;99.90;;;;;;5102932;28;20048;-88
2022/04/15 05:18:35;;;;;;;10.32;6.18;;;8.50;99.90;;;;;;5103649;28;20059;-83
2022/04/15 05:21:01;;;;;;;11.68;5.55;;;8.00;99.90;;;;;;5085087;28;20066;-85
2022/04/15 05:23:27;;;;;;;9.25;5.97;;;8.40;99.90;;;;;;5083282;28;20395;-85
2022/04/15 05:25:53;;;;;;;10.70;6.13;;;8.30;99.90;;;;;;5084603;28;20040;-83
2022/04/15 05:28:19;;;;;;;10.82;5.32;;;8.10;99.90;;;;;;5084053;28;20074;-84
2022/04/15 05:30:44;;;;;;;10.18;5.10;;;8.10;99.90;;;;;;5067051;28;20051;-89
2022/04/15 05:33:10;;;;;;;9.75;5.50;;;8.10;99.90;;;;;;5085897;28;20040;-83
2022/04/15 05:35:35;;;;;;;11.02;6.05;;;8.40;99.90;;;;;;5089788;28;20092;-83
2022/04/15 05:38:02;;;;;;;12.23;6.15;;;8.20;99.90;;;;;;5107309;23;20146;-87
2022/04/15 05:40:28;;;;;;;11.98;6.90;;;8.30;99.90;;;;;;5100736;22;20051;-83
2022/04/15 05:42:54;;;;;;;11.95;7.20;;;8.70;99.90;;;;;;5116956;22;20049;-86
2022/04/15 05:45:20;;;;;;;14.55;8.45;;;8.30;99.90;;;;;;5121658;28;20059;-83
2022/04/15 05:47:46;;;;;;;13.90;8.07;;;8.10;99.90;;;;;;5105734;28;20032;-84
2022/04/15 05:50:11;;;;;;;17.10;8.57;;;8.10;99.90;;;;;;5104204;28;20043;-83
2022/04/15 05:52:37;;;;;;;15.38;8.23;;;8.50;99.90;;;;;;5101265;28;20044;-85
2022/04/15 05:55:03;;;;;;;14.05;8.00;;;8.60;99.90;;;;;;5120651;28;20096;-84
2022/04/15 05:57:29;;;;;;;16.70;9.02;;;8.10;99.90;;;;;;5097301;22;20052;-83
2022/04/15 05:59:54;;;;;;;14.00;8.00;;;8.10;99.90;;;;;;5082501;28;20039;-85
2022/04/15 06:02:21;;;;;;;13.23;7.50;;;8.10;99.90;;;;;;5107329;22;20044;-88
2022/04/15 06:04:48;;;;;;;12.70;7.15;;;8.20;99.90;;;;;;5053945;22;20057;-85
2022/04/15 06:07:13;;;;;;;12.30;6.63;;;8.70;99.90;;;;;;5023260;28;20088;-86
2022/04/15 06:09:39;;;;;;;9.38;6.13;;;8.60;99.90;;;;;;5006471;28;20049;-85
2022/04/15 06:12:05;;;;;;;9.00;5.85;;;8.70;99.90;;;;;;5006489;28;20105;-84
2022/04/15 06:14:33;;;;;;;9.25;6.32;;;8.20;99.90;;;;;;5019226;22;20048;-83
2022/04/15 06:16:59;;;;;;;9.10;5.55;;;8.20;99.90;;;;;;5082362;28;20075;-88
2022/04/15 06:19:25;;;;;;;9.68;5.85;;;8.30;99.90;;;;;;5088823;22;20044;-83
2022/04/15 06:21:51;;;;;;;8.15;5.43;;;8.40;99.90;;;;;;5066198;28;20047;-86
2022/04/15 06:24:17;;;;;;;7.65;5.05;;;8.50;99.90;;;;;;5065021;28;20048;-87
2022/04/15 06:26:42;;;;;;;7.20;4.72;;;8.40;99.90;;;;;;5065114;28;20059;-89
2022/04/15 06:29:08;;;;;;;6.93;4.78;;;8.40;99.90;;;;;;5063662;28;20044;-86
2022/04/15 06:31:34;;;;;;;9.13;4.68;;;8.60;99.90;;;;;;5071390;28;20107;-83
2022/04/15 06:33:59;;;;;;;7.10;4.55;;;8.50;99.90;;;;;;5084533;28;20051;-88
2022/04/15 06:36:25;;;;;;;6.43;4.55;;;8.70;99.90;;;;;;5084105;28;20028;-89
2022/04/15 06:38:51;;;;;;;7.97;4.93;;;9.20;99.90;;;;;;5101872;28;20088;-83
2022/04/15 06:41:16;;;;;;;7.38;4.18;;;8.50;99.90;;;;;;5076749;23;20029;-86
2022/04/15 06:43:42;;;;;;;5.28;4.30;;;8.70;99.90;;;;;;5035696;28;20045;-83
2022/04/15 06:48:33;;;;;;;5.82;3.85;;;8.50;99.90;;;;;;5100768;22;20568;-86
2022/04/15 06:50:59;;;;;;;5.65;3.65;;;8.60;99.90;;;;;;5079098;28;20056;-84
2022/04/15 06:53:25;;;;;;;7.55;4.20;;;8.50;99.90;;;;;;5097927;28;20123;-84
2022/04/15 06:55:52;;;;;;;5.90;3.70;;;8.70;99.90;;;;;;5064499;28;20051;-83
2022/04/15 06:58:18;;;;;;;5.22;3.55;;;8.70;99.90;;;;;;5082727;28;20490;-86
2022/04/15 07:00:45;;;;;;;6.43;3.53;;;8.70;99.90;;;;;;5100846;28;20040;-84
2022/04/15 07:03:12;;;;;;;7.22;3.90;;;8.70;99.90;;;;;;5081050;28;20033;-84
2022/04/15 07:05:39;;;;;;;5.25;3.08;;;9.00;99.90;;;;;;5081075;28;20048;-87
2022/04/15 07:08:08;;;;;;;4.50;3.13;;;8.80;99.90;;;;;;5081880;28;20044;-84
2022/04/15 07:10:35;;;;;;;4.40;3.10;;;8.70;99.90;;;;;;5073096;23;20692;-83
2022/04/15 07:13:01;;;;;;;4.30;2.85;;;9.00;99.90;;;;;;5085538;22;20044;-86
2022/04/15 07:15:27;;;;;;;6.97;3.10;;;9.10;99.90;;;;;;5065269;28;20074;-86
2022/04/15 07:17:52;;;;;;;4.63;2.65;;;8.80;99.90;;;;;;5079972;28;20126;-83
2022/04/15 07:20:18;;;;;;;4.70;2.80;;;8.80;99.90;;;;;;5080038;28;20048;-86
2022/04/15 07:22:44;;;;;;;4.18;2.90;;;8.90;99.90;;;;;;5080305;28;20050;-84
2022/04/15 07:25:09;;;;;;;3.92;2.58;;;8.70;99.90;;;;;;5098056;28;20054;-84
2022/04/15 07:27:35;;;;;;;3.92;2.70;;;9.20;99.90;;;;;;5064067;28;20066;-83
2022/04/15 07:30:01;;;;;;;6.25;2.80;;;8.90;99.90;;;;;;5063517;28;20059;-83
2022/04/15 07:32:28;;;;;;;5.18;3.03;;;8.50;99.90;;;;;;5080184;28;20079;-86
2022/04/15 07:34:54;;;;;;;4.70;2.70;;;8.60;99.90;;;;;;5062986;28;20036;-84
2022/04/15 07:37:20;;;;;;;5.95;2.90;;;8.50;99.90;;;;;;5098270;28;20578;-84
2022/04/15 07:39:46;;;;;;;4.38;3.00;;;8.60;99.90;;;;;;5098382;28;20051;-87
2022/04/15 07:42:12;;;;;;;7.03;3.40;;;8.50;99.90;;;;;;5063813;28;20052;-85
2022/04/15 07:44:39;;;;;;;5.40;3.10;;;8.40;99.90;;;;;;5062780;28;20542;-86
2022/04/15 07:47:06;;;;;;;5.63;3.20;;;8.70;99.90;;;;;;5079708;28;20055;-88
2022/04/15 07:49:33;;;;;;;6.63;3.45;;;8.40;99.90;;;;;;5078698;28;20051;-84
2022/04/15 07:51:58;;;;;;;5.57;3.65;;;8.40;99.90;;;;;;5078922;28;20048;-85
2022/04/15 07:54:24;;;;;;;6.13;4.13;;;8.40;99.90;;;;;;5097710;28;20042;-84
2022/04/15 07:56:49;;;;;;;7.80;4.05;;;8.40;99.90;;;;;;5097313;28;20089;-87
2022/04/15 07:59:15;;;;;;;6.95;4.00;;;8.30;99.90;;;;;;5079097;28;20048;-87
2022/04/15 08:01:41;;;;;;;5.47;3.95;;;8.30;99.90;;;;;;5078858;28;20048;-87
2022/04/15 08:04:06;;;;;;;7.40;4.53;;;8.30;99.90;;;;;;5079275;28;20382;-83
2022/04/15 08:06:32;;;;;;;7.82;4.95;;;8.30;99.90;;;;;;5080896;28;20048;-84
2022/04/15 08:09:00;;;;;;;9.55;5.80;;;8.40;99.90;;;;;;5097121;28;20058;-84
2022/04/15 08:11:26;;;;;;;10.48;5.65;;;8.30;99.90;;;;;;5074099;28;20063;-87
2022/04/15 08:13:53;;;;;;;8.35;5.20;;;8.60;99.90;;;;;;5079395;28;20118;-85
2022/04/15 08:16:20;;;;;;;8.13;5.40;;;8.50;99.90;;;;;;5081289;28;20048;-84
2022/04/15 08:18:46;;;;;;;13.05;7.38;;;8.80;99.90;;;;;;5079960;28;20047;-84
2022/04/15 08:21:12;;;;;;;10.27;6.78;;;8.60;99.90;;;;;;5062878;28;20472;-84
2022/04/15 08:23:38;;;;;;;11.98;7.20;;;8.70;99.90;;;;;;5095312;28;20055;-84
2022/04/15 08:26:03;;;;;;;10.40;6.85;;;8.80;99.90;;;;;;5096842;28;20051;-84
2022/04/15 08:28:29;;;;;;;14.82;8.13;;;9.10;99.90;;;;;;5097157;28;20433;-84
2022/04/15 08:30:55;;;;;;;12.95;8.18;;;9.00;99.90;;;;;;5077526;28;20055;-84
2022/04/15 08:33:21;;;;;;;13.32;8.48;;;9.40;99.90;;;;;;5096842;28;20111;-84
2022/04/15 08:35:47;;;;;;;12.73;7.65;;;9.80;99.90;;;;;;5085567;22;20052;-87
2022/04/15 08:38:13;;;;;;;13.02;7.57;;;9.60;99.90;;;;;;5061505;28;20085;-85
2022/04/15 08:40:43;;;;;;;13.38;7.55;;;9.50;99.90;;;;;;5079582;28;20036;-87
2022/04/15 08:43:10;;;;;;;13.38;7.45;;;9.80;99.90;;;;;;5098621;28;20093;-88
2022/04/15 08:45:41;;;;;;;15.55;7.97;;;10.00;99.90;;;;;;5107767;28;20044;-84
2022/04/15 08:48:08;;;;;;;12.90;7.40;;;10.10;99.90;;;;;;5117078;28;20086;-84
2022/04/15 08:50:33;;;;;;;11.65;7.13;;;10.30;99.90;;;;;;5117002;28;20131;-88
2022/04/15 08:53:00;;;;;;;12.45;7.47;;;10.30;99.90;;;;;;5086565;28;20595;-86
2022/04/15 08:55:27;;;;;;;13.77;7.10;;;10.20;99.90;;;;;;5077986;28;20461;-86
2022/04/15 08:57:54;;;;;;;13.20;7.38;;;10.10;99.90;;;;;;5076948;28;20051;-87
2022/04/15 09:00:21;;;;;;;11.63;7.53;;;10.00;99.90;;;;;;5078804;28;20048;-85
2022/04/15 09:02:47;;;;;;;11.95;7.13;;;10.10;99.90;;;;;;5098730;28;20515;-84
2022/04/15 09:05:18;;;;;;;13.25;7.10;;;10.10;99.90;;;;;;5062840;28;20128;-84
2022/04/15 09:07:45;;;;;;;10.77;6.80;;;10.10;99.90;;;;;;5077775;28;20044;-84
2022/04/15 09:10:11;;;;;;;12.32;6.93;;;10.20;99.90;;;;;;5096577;28;20127;-84
2022/04/15 09:12:39;;;;;;;12.52;7.53;;;10.10;99.90;;;;;;5077872;28;20040;-84
2022/04/15 09:15:11;;;;;;;12.80;7.60;;;10.20;99.90;;;;;;5095489;28;20080;-84
2022/04/15 09:17:39;;;;;;;13.55;7.47;;;10.20;99.90;;;;;;5096558;28;20044;-84
2022/04/15 09:20:07;;;;;;;12.95;6.65;;;10.20;99.90;;;;;;5096183;28;20502;-85
2022/04/15 09:22:33;;;;;;;12.88;7.22;;;10.20;99.90;;;;;;5077909;28;20040;-84
2022/04/15 09:24:59;;;;;;;12.07;6.57;;;10.30;99.90;;;;;;5078087;28;20048;-84
2022/04/15 09:27:26;;;;;;;11.52;6.28;;;10.30;99.90;;;;;;5095759;28;20048;-84
2022/04/15 09:29:56;;;;;;;13.35;7.10;;;10.30;99.90;;;;;;5095893;28;20047;-85
2022/04/15 09:32:24;;;;;;;11.25;7.07;;;10.30;99.90;;;;;;5097085;28;20039;-84
2022/04/15 09:34:56;;;;;;;9.30;5.82;;;10.40;99.90;;;;;;5076944;28;20051;-84
2022/04/15 09:37:25;;;;;;;11.52;6.45;;;10.40;99.90;;;;;;5078088;28;20072;-86
2022/04/15 09:40:12;;;;;;;12.55;6.22;;;10.40;99.90;;;;;;5077672;28;20048;-86
2022/04/15 09:42:50;;;;;;;10.18;5.35;;;10.50;99.90;;;;;;5078270;28;20051;-83
2022/04/15 09:45:21;;;;;;;10.20;5.45;;;10.50;99.90;;;;;;5095975;28;20051;-84
2022/04/15 09:47:58;;;;;;;10.25;5.10;;;10.60;99.90;;;;;;5095373;28;20130;-83
2022/04/15 09:50:25;;;;;;;8.73;4.90;;;10.80;99.90;;;;;;5076200;28;20044;-84
2022/04/15 09:52:55;;;;;;;8.48;4.63;;;10.90;99.90;;;;;;5098229;28;20040;-85
2022/04/15 09:55:24;;;;;;;11.32;5.00;;;11.10;99.90;;;;;;5075935;28;20047;-85
2022/04/15 09:57:51;;;;;;;8.73;4.55;;;11.10;99.90;;;;;;5075328;28;20052;-86
2022/04/15 10:00:19;;;;;;;7.60;4.63;;;11.30;99.90;;;;;;5075147;28;20135;-86
2022/04/15 10:02:46;;;;;;;7.20;4.40;;;11.30;99.90;;;;;;5075467;28;20040;-87
2022/04/15 10:05:13;;;;;;;8.15;4.38;;;11.50;99.90;;;;;;5112466;28;20047;-86
2022/04/15 10:07:42;;;;;;;7.55;4.47;;;11.50;99.90;;;;;;5099749;28;20531;-86
2022/04/15 10:10:09;;;;;;;6.70;4.60;;;11.50;99.90;;;;;;5085213;28;20139;-85
2022/04/15 10:12:44;;;;;;;8.88;4.47;;;11.60;99.90;;;;;;5102934;28;20071;-84
2022/04/15 10:15:10;;;;;;;7.25;4.32;;;11.70;99.90;;;;;;5122489;28;20047;-86
2022/04/15 10:17:39;;;;;;;9.60;4.25;;;11.70;99.90;;;;;;5126588;28;20039;-83
2022/04/15 10:20:07;;;;;;;7.15;4.55;;;12.00;99.90;;;;;;5126440;28;20044;-83
2022/04/15 10:22:37;;;;;;;8.60;3.90;;;12.20;99.90;;;;;;5125805;28;20043;-86
2022/04/15 10:25:03;;;;;;;7.95;4.03;;;12.30;99.90;;;;;;5107890;28;20114;-84
2022/04/15 10:27:30;;;;;;;7.40;3.95;;;12.30;99.90;;;;;;5129335;28;20069;-84
2022/04/15 10:30:12;;;;;;;5.82;3.75;;;12.40;99.90;;;;;;5121036;28;20052;-84
2022/04/15 10:32:57;;;;;;;6.50;3.80;;;12.40;99.90;;;;;;5118266;28;20062;-86
2022/04/15 10:35:28;;;;;;;9.88;4.28;;;12.10;99.90;;;;;;5127011;28;20059;-84
2022/04/15 10:38:01;;;;;;;6.40;3.75;;;12.10;99.90;;;;;;5109004;28;20044;-87
2022/04/15 10:40:33;;;;;;;6.60;3.70;;;12.10;99.90;;;;;;5108677;28;20375;-86
2022/04/15 10:43:17;;;;;;;6.53;3.60;;;12.10;99.90;;;;;;5128164;28;20538;-83
2022/04/15 10:45:43;;;;;;;6.43;3.58;;;12.20;99.90;;;;;;5109337;28;20083;-83
2022/04/15 10:48:08;;;;;;;5.43;3.40;;;12.00;99.90;;;;;;5123199;28;20113;-84
2022/04/15 10:50:35;;;;;;;7.57;3.90;;;11.90;99.90;;;;;;5104794;28;20127;-84
2022/04/15 10:53:26;;;;;;;6.78;3.80;;;11.90;99.90;;;;;;5120795;28;20036;-84
2022/04/15 10:55:52;;;;;;;6.00;3.90;;;12.00;99.90;;;;;;5108100;28;20055;-84
2022/04/15 10:58:20;;;;;;;6.65;3.63;;;12.00;99.90;;;;;;5102470;28;20139;-84
2022/04/15 11:01:15;;;;;;;7.32;4.15;;;12.00;99.90;;;;;;5120566;28;20044;-85
2022/04/15 11:03:42;;;;;;;6.70;4.20;;;11.90;99.90;;;;;;5120200;28;20051;-83
2022/04/15 11:06:09;;;;;;;7.82;4.25;;;12.10;99.90;;;;;;5102004;28;20099;-86
2022/04/15 11:08:51;;;;;;;9.93;4.90;;;12.30;99.90;;;;;;5101080;28;20096;-84
2022/04/15 11:11:18;;;;;;;9.75;4.72;;;12.30;99.90;;;;;;5130759;28;20046;-84
2022/04/15 11:13:44;;;;;;;7.97;4.07;;;12.60;99.90;;;;;;5121624;28;20031;-83
2022/04/15 11:16:14;;;;;;;7.10;3.30;;;12.20;99.90;;;;;;5106036;28;20056;-84
2022/04/15 11:18:50;;;;;;;6.38;3.40;;;12.30;99.90;;;;;;5124107;28;20057;-84
2022/04/15 11:21:22;;;;;;;5.40;3.50;;;12.20;99.90;;;;;;5138679;28;20134;-84
2022/04/15 11:23:56;;;;;;;8.55;4.25;;;12.50;99.90;;;;;;5102153;28;20064;-86
2022/04/15 11:26:23;;;;;;;7.85;3.88;;;12.20;99.90;;;;;;5100872;28;20044;-87
2022/04/15 11:28:52;;;;;;;6.07;3.53;;;12.10;99.90;;;;;;5084917;28;20046;-84
2022/04/15 11:31:22;;;;;;;5.63;3.53;;;12.10;99.90;;;;;;5119758;28;20051;-83
2022/04/15 11:33:48;;;;;;;5.88;3.75;;;12.00;99.90;;;;;;5107078;28;20043;-85
2022/04/15 11:36:14;;;;;;;5.85;3.78;;;12.10;99.90;;;;;;5111264;28;20055;-84
2022/04/15 11:38:40;;;;;;;5.47;3.75;;;12.10;99.90;;;;;;5131801;28;20043;-84
2022/04/15 11:41:06;;;;;;;5.70;3.90;;;12.40;99.90;;;;;;5101105;28;20123;-85
2022/04/15 11:43:31;;;;;;;6.18;3.67;;;12.30;99.90;;;;;;5120903;28;20050;-86
2022/04/15 11:45:57;;;;;;;7.32;3.42;;;12.40;99.90;;;;;;5099042;28;20046;-84
2022/04/15 11:48:24;;;;;;;6.72;3.15;;;12.60;99.90;;;;;;5116399;28;20043;-84
2022/04/15 11:50:52;;;;;;;5.10;3.08;;;13.00;99.90;;;;;;5116279;28;20051;-87
2022/04/15 11:53:21;;;;;;;6.78;3.55;;;12.70;99.90;;;;;;5101051;28;20047;-89
2022/04/15 11:55:55;;;;;;;5.30;3.40;;;12.80;99.90;;;;;;5087201;23;20044;-84
2022/04/15 11:58:22;;;;;;;5.70;3.60;;;12.80;99.90;;;;;;5045607;28;20391;-83
2022/04/15 12:00:56;;;;;;;7.53;4.13;;;13.10;99.90;;;;;;5052799;28;20045;-82
2022/04/15 12:03:22;;;;;;;5.95;4.22;;;13.20;99.90;;;;;;5043610;28;20048;-84
2022/04/15 12:05:49;;;;;;;6.30;4.32;;;12.80;99.90;;;;;;5078130;28;20078;-84
2022/04/15 12:08:16;;;;;;;6.00;4.07;;;12.90;99.90;;;;;;5079208;28;20064;-88
2022/04/15 12:10:44;;;;;;;7.28;4.57;;;12.70;99.90;;;;;;5076650;28;20102;-87
2022/04/15 12:13:10;;;;;;;6.90;4.18;;;12.70;99.90;;;;;;5060204;28;20057;-84
2022/04/15 12:15:36;;;;;;;9.48;5.03;;;12.70;99.90;;;;;;5078272;28;20067;-84
2022/04/15 12:18:03;;;;;;;8.80;4.97;;;12.80;99.90;;;;;;5044243;28;20040;-86
2022/04/15 12:20:30;;;;;;;8.93;5.00;;;12.70;99.90;;;;;;5046933;28;20178;-87
2022/04/15 12:22:58;;;;;;;6.30;4.65;;;12.70;99.90;;;;;;5079772;28;20048;-84
2022/04/15 12:25:24;;;;;;;6.97;4.78;;;12.70;99.90;;;;;;5045260;28;20066;-84
2022/04/15 12:27:50;;;;;;;6.43;4.80;;;12.60;99.90;;;;;;5077454;28;20067;-85
2022/04/15 12:30:36;;;;;;;7.18;5.03;;;12.60;99.90;;;;;;5049602;28;20041;-83
2022/04/15 12:33:07;;;;;;;8.68;4.75;;;12.60;99.90;;;;;;5061398;28;20087;-87
2022/04/15 12:35:34;;;;;;;7.60;4.75;;;12.60;99.90;;;;;;5079802;28;20070;-83
2022/04/15 12:38:00;;;;;;;7.93;4.88;;;12.70;99.90;;;;;;5079774;28;20049;-87
2022/04/15 12:40:30;;;;;;;7.47;4.40;;;12.70;99.90;;;;;;5079243;28;20529;-86
2022/04/15 12:43:17;;;;;;;9.20;5.28;;;12.70;99.90;;;;;;5061938;28;20040;-87
2022/04/15 12:45:53;;;;;;;7.32;5.10;;;12.80;99.90;;;;;;5044199;28;20487;-84
2022/04/15 12:48:19;;;;;;;7.85;5.22;;;12.80;99.90;;;;;;5078913;28;20047;-87
2022/04/15 12:50:46;;;;;;;7.05;4.68;;;12.80;99.90;;;;;;5046259;28;20071;-85